Time;durP1;ratioP1;P1;durP2;ratioP2;P2;SDS_P1;SDS_P2;PMS_P1;PMS_P2;Temp;Humidity;BMP_temperature;BMP_pressure;BME280_temperature;BME280_humidity;BME280_pressure;Samples;Min_cycle;Max_cycle;Signal;HPM_P1;HPM_P2
2023/05/30 00:00:13;;;;;;;8.98;2.80;;;;;;;;;;7391893;19;20508;-72
2023/05/30 00:02:41;;;;;;;7.82;2.40;;;;;;;;;;7368272;19;20014;-74
2023/05/30 00:05:07;;;;;;;9.90;2.35;;;;;;;;;;7366335;19;20010;-73
2023/05/30 00:07:32;;;;;;;6.60;2.40;;;;;;;;;;7367667;19;20003;-74
2023/05/30 00:09:57;;;;;;;7.72;2.42;;;;;;;;;;7366604;19;20366;-73
2023/05/30 00:12:25;;;;;;;8.55;2.58;;;;;;;;;;7390654;19;20540;-73
2023/05/30 00:14:50;;;;;;;9.05;2.70;;;;;;;;;;7367223;19;20027;-73
2023/05/30 00:17:16;;;;;;;9.82;2.63;;;;;;;;;;7366081;19;20039;-73
2023/05/30 00:19:42;;;;;;;10.50;2.42;;;;;;;;;;7366598;19;20026;-72
2023/05/30 00:22:08;;;;;;;8.63;2.75;;;;;;;;;;7367955;19;20941;-73
2023/05/30 00:24:33;;;;;;;7.47;2.15;;;;;;;;;;7390047;19;20016;-73
2023/05/30 00:26:58;;;;;;;7.40;2.35;;;;;;;;;;7367918;19;20006;-73
2023/05/30 00:29:26;;;;;;;7.00;2.13;;;;;;;;;;7368802;19;20018;-74
2023/05/30 00:31:52;;;;;;;10.82;2.80;;;;;;;;;;7370004;19;20730;-73
2023/05/30 00:34:17;;;;;;;9.07;2.13;;;;;;;;;;7372210;19;20014;-73
2023/05/30 00:36:42;;;;;;;7.10;2.30;;;;;;;;;;7371370;19;20010;-72
2023/05/30 00:39:08;;;;;;;8.52;2.40;;;;;;;;;;7393646;19;20086;-72
2023/05/30 00:41:33;;;;;;;8.20;2.40;;;;;;;;;;7370840;19;20081;-74
2023/05/30 00:43:58;;;;;;;9.60;2.42;;;;;;;;;;7366716;19;20398;-74
2023/05/30 00:46:29;;;;;;;8.52;2.47;;;;;;;;;;7366372;19;20021;-73
2023/05/30 00:48:55;;;;;;;8.43;2.30;;;;;;;;;;7365487;19;20011;-73
2023/05/30 00:51:20;;;;;;;13.77;2.65;;;;;;;;;;7387325;19;20015;-73
2023/05/30 00:53:46;;;;;;;9.52;3.72;;;;;;;;;;7368899;19;20044;-73
2023/05/30 00:56:12;;;;;;;8.77;2.53;;;;;;;;;;7384629;19;20010;-72
2023/05/30 00:58:38;;;;;;;8.90;2.92;;;;;;;;;;7384803;19;20035;-72
2023/05/30 01:01:04;;;;;;;10.55;2.67;;;;;;;;;;7382795;19;20025;-72
2023/05/30 01:03:32;;;;;;;12.95;2.53;;;;;;;;;;7393974;19;20029;-72
2023/05/30 01:05:59;;;;;;;15.93;3.10;;;;;;;;;;7371295;19;20007;-73
2023/05/30 01:08:25;;;;;;;12.10;3.10;;;;;;;;;;7371458;19;20035;-73
2023/05/30 01:10:54;;;;;;;12.43;2.38;;;;;;;;;;7374142;19;20085;-73
2023/05/30 01:13:28;;;;;;;10.68;2.92;;;;;;;;;;7374069;19;20125;-73
2023/05/30 01:15:57;;;;;;;11.75;2.60;;;;;;;;;;7381319;19;20009;-73
2023/05/30 01:18:31;;;;;;;18.13;3.35;;;;;;;;;;7400237;19;20058;-73
2023/05/30 01:21:07;;;;;;;13.05;3.20;;;;;;;;;;7378253;19;20035;-72
2023/05/30 01:23:52;;;;;;;7.18;2.80;;;;;;;;;;7375244;19;20032;-72
2023/05/30 01:26:44;;;;;;;13.25;3.38;;;;;;;;;;7373609;19;20017;-72
2023/05/30 01:29:17;;;;;;;9.68;2.47;;;;;;;;;;7371553;19;20532;-73
2023/05/30 01:31:44;;;;;;;12.25;2.78;;;;;;;;;;7373460;19;20014;-73
2023/05/30 01:34:10;;;;;;;11.50;2.90;;;;;;;;;;7373636;19;20070;-74
2023/05/30 01:36:36;;;;;;;11.63;2.63;;;;;;;;;;7387574;19;20007;-72
2023/05/30 01:39:01;;;;;;;10.18;2.70;;;;;;;;;;7377527;19;20040;-74
2023/05/30 01:41:51;;;;;;;10.77;2.75;;;;;;;;;;7372112;19;20002;-74
2023/05/30 01:44:23;;;;;;;7.93;2.58;;;;;;;;;;7371666;19;20064;-74
2023/05/30 01:46:59;;;;;;;7.18;2.17;;;;;;;;;;7372510;19;20011;-74
2023/05/30 01:49:48;;;;;;;12.25;2.65;;;;;;;;;;7372080;19;20010;-74
2023/05/30 01:52:17;;;;;;;6.97;2.30;;;;;;;;;;7373085;19;20552;-74
2023/05/30 01:54:47;;;;;;;8.05;2.88;;;;;;;;;;7372412;19;20014;-74
2023/05/30 01:57:15;;;;;;;10.00;2.30;;;;;;;;;;7392206;19;20006;-74
2023/05/30 01:59:41;;;;;;;6.95;2.10;;;;;;;;;;7370237;19;20007;-74
2023/05/30 02:02:09;;;;;;;8.45;2.47;;;;;;;;;;7371487;19;20078;-75
2023/05/30 02:04:35;;;;;;;6.80;2.47;;;;;;;;;;7372547;19;20110;-74
2023/05/30 02:07:00;;;;;;;8.95;2.22;;;;;;;;;;7372784;19;20672;-74
2023/05/30 02:09:26;;;;;;;7.63;2.47;;;;;;;;;;7392851;19;20013;-74
2023/05/30 02:11:52;;;;;;;8.55;2.63;;;;;;;;;;7371502;19;20467;-74
2023/05/30 02:14:17;;;;;;;9.25;2.20;;;;;;;;;;7369621;19;20030;-74
2023/05/30 02:16:44;;;;;;;6.70;2.50;;;;;;;;;;7371707;19;20010;-75
2023/05/30 02:19:11;;;;;;;11.30;2.50;;;;;;;;;;7371689;19;20035;-75
2023/05/30 02:21:37;;;;;;;6.43;2.35;;;;;;;;;;7381097;19;20070;-76
2023/05/30 02:24:02;;;;;;;5.90;2.28;;;;;;;;;;7394197;19;20019;-75
2023/05/30 02:26:27;;;;;;;8.32;2.50;;;;;;;;;;7373877;19;20010;-74
2023/05/30 02:28:53;;;;;;;11.07;2.92;;;;;;;;;;7371190;19;20006;-74
2023/05/30 02:31:18;;;;;;;9.93;2.78;;;;;;;;;;7374003;19;20487;-74
2023/05/30 02:33:44;;;;;;;9.13;2.35;;;;;;;;;;7375021;19;20448;-76
2023/05/30 02:36:09;;;;;;;7.68;2.38;;;;;;;;;;7399397;19;20014;-76
2023/05/30 02:38:34;;;;;;;7.30;2.55;;;;;;;;;;7376016;19;20009;-75
2023/05/30 02:41:00;;;;;;;7.88;2.65;;;;;;;;;;7377843;19;20027;-75
2023/05/30 02:43:25;;;;;;;9.10;2.35;;;;;;;;;;7380188;19;20219;-75
2023/05/30 02:45:51;;;;;;;6.65;2.33;;;;;;;;;;7382269;19;20084;-76
2023/05/30 02:48:16;;;;;;;8.35;2.15;;;;;;;;;;7402551;19;20010;-76
2023/05/30 02:50:41;;;;;;;10.88;2.78;;;;;;;;;;7375362;19;20007;-74
2023/05/30 02:53:07;;;;;;;10.57;2.50;;;;;;;;;;7380244;19;20003;-74
2023/05/30 02:55:32;;;;;;;11.98;2.50;;;;;;;;;;7381652;19;20002;-74
2023/05/30 02:57:58;;;;;;;8.82;2.33;;;;;;;;;;7372707;19;20111;-75
2023/05/30 03:00:24;;;;;;;7.68;2.50;;;;;;;;;;7403817;19;20006;-74
2023/05/30 03:02:50;;;;;;;9.88;2.63;;;;;;;;;;7379593;19;20007;-75
2023/05/30 03:05:17;;;;;;;8.05;2.60;;;;;;;;;;7372839;19;20011;-76
2023/05/30 03:07:42;;;;;;;4.63;2.05;;;;;;;;;;7370174;19;20010;-74
2023/05/30 03:10:08;;;;;;;9.48;2.10;;;;;;;;;;7370494;19;20016;-74
2023/05/30 03:12:33;;;;;;;12.65;3.00;;;;;;;;;;7391437;19;20014;-74
2023/05/30 03:14:58;;;;;;;9.60;2.40;;;;;;;;;;7370140;19;20018;-74
2023/05/30 03:17:24;;;;;;;10.25;2.17;;;;;;;;;;7368309;19;20018;-74
2023/05/30 03:19:49;;;;;;;9.25;2.40;;;;;;;;;;7369523;19;20125;-74
2023/05/30 03:22:14;;;;;;;9.98;2.60;;;;;;;;;;7369466;19;20014;-74
2023/05/30 03:24:40;;;;;;;7.30;2.70;;;;;;;;;;7368667;19;20074;-74
2023/05/30 03:27:07;;;;;;;8.65;2.58;;;;;;;;;;7387919;19;20303;-74
2023/05/30 03:29:32;;;;;;;8.75;2.42;;;;;;;;;;7366040;19;20011;-73
2023/05/30 03:31:57;;;;;;;13.45;2.55;;;;;;;;;;7369355;19;20014;-73
2023/05/30 03:34:23;;;;;;;9.23;2.35;;;;;;;;;;7372867;19;20014;-74
2023/05/30 03:36:52;;;;;;;10.30;2.60;;;;;;;;;;7367987;19;20002;-75
2023/05/30 03:39:21;;;;;;;6.50;2.22;;;;;;;;;;7386283;19;20021;-74
2023/05/30 03:41:46;;;;;;;7.80;2.85;;;;;;;;;;7368644;19;20078;-75
2023/05/30 03:44:12;;;;;;;13.57;2.70;;;;;;;;;;7366321;19;20011;-74
2023/05/30 03:46:37;;;;;;;10.23;2.75;;;;;;;;;;7368290;19;20007;-74
2023/05/30 03:49:02;;;;;;;10.82;2.80;;;;;;;;;;7375624;19;20092;-75
2023/05/30 03:51:28;;;;;;;8.73;2.33;;;;;;;;;;7393062;19;20019;-74
2023/05/30 03:53:53;;;;;;;8.23;2.38;;;;;;;;;;7373298;19;19999;-75
2023/05/30 03:56:18;;;;;;;8.93;2.95;;;;;;;;;;7371314;19;20481;-75
2023/05/30 03:58:44;;;;;;;8.63;2.58;;;;;;;;;;7369771;19;20014;-74
2023/05/30 04:01:10;;;;;;;7.88;2.72;;;;;;;;;;7365052;19;20484;-74
2023/05/30 04:03:37;;;;;;;9.80;2.58;;;;;;;;;;7382677;19;20014;-77
2023/05/30 04:06:03;;;;;;;11.20;2.35;;;;;;;;;;7388840;19;20014;-74
2023/05/30 04:08:28;;;;;;;9.63;2.72;;;;;;;;;;7365140;19;20010;-74
2023/05/30 04:10:53;;;;;;;9.25;2.38;;;;;;;;;;7367461;19;20011;-73
2023/05/30 04:13:19;;;;;;;11.75;2.80;;;;;;;;;;7367778;19;20014;-74
2023/05/30 04:15:44;;;;;;;12.02;2.53;;;;;;;;;;7368536;19;20002;-74
2023/05/30 04:18:10;;;;;;;8.77;2.90;;;;;;;;;;7388043;19;20039;-74
2023/05/30 04:20:35;;;;;;;10.40;2.78;;;;;;;;;;7367300;19;20018;-74
2023/05/30 04:23:00;;;;;;;10.05;2.42;;;;;;;;;;7368281;19;20017;-74
2023/05/30 04:25:26;;;;;;;10.57;2.67;;;;;;;;;;7367954;19;20050;-76
2023/05/30 04:27:51;;;;;;;11.45;3.17;;;;;;;;;;7366565;19;20010;-74
2023/05/30 04:30:18;;;;;;;11.48;2.60;;;;;;;;;;7390242;19;20006;-75
2023/05/30 04:32:44;;;;;;;11.05;2.85;;;;;;;;;;7367261;19;20078;-75
2023/05/30 04:35:13;;;;;;;9.25;2.60;;;;;;;;;;7369116;19;20374;-75
2023/05/30 04:37:39;;;;;;;13.75;3.50;;;;;;;;;;7359343;19;20082;-75
2023/05/30 04:40:09;;;;;;;10.55;3.03;;;;;;;;;;7364992;19;20002;-75
2023/05/30 04:42:34;;;;;;;14.68;2.65;;;;;;;;;;7391200;19;20013;-74
2023/05/30 04:45:00;;;;;;;21.02;3.38;;;;;;;;;;7373251;19;20015;-75
2023/05/30 04:47:28;;;;;;;10.93;2.50;;;;;;;;;;7378222;19;20507;-75
2023/05/30 04:49:54;;;;;;;10.10;2.20;;;;;;;;;;7381847;19;20015;-75
2023/05/30 04:52:21;;;;;;;15.52;2.70;;;;;;;;;;7377721;19;20022;-70
2023/05/30 04:54:46;;;;;;;12.25;3.17;;;;;;;;;;7373914;19;20033;-75
2023/05/30 04:57:12;;;;;;;11.50;2.80;;;;;;;;;;7394459;19;20346;-75
2023/05/30 04:59:39;;;;;;;10.48;3.40;;;;;;;;;;7375280;19;20017;-75
2023/05/30 05:02:05;;;;;;;9.52;2.50;;;;;;;;;;7375687;19;20014;-75
2023/05/30 05:04:30;;;;;;;12.90;2.60;;;;;;;;;;7375812;19;20429;-75
2023/05/30 05:06:56;;;;;;;13.30;2.95;;;;;;;;;;7373789;19;20040;-73
2023/05/30 05:09:24;;;;;;;16.27;3.00;;;;;;;;;;7394224;19;20680;-75
2023/05/30 05:11:50;;;;;;;13.73;3.33;;;;;;;;;;7371112;19;20010;-74
2023/05/30 05:14:15;;;;;;;11.88;2.55;;;;;;;;;;7374824;19;20011;-74
2023/05/30 05:16:40;;;;;;;10.93;2.40;;;;;;;;;;7373139;19;20010;-74
2023/05/30 05:19:06;;;;;;;13.95;2.58;;;;;;;;;;7374259;19;20014;-74
2023/05/30 05:21:31;;;;;;;10.93;2.80;;;;;;;;;;7396649;19;20013;-73
2023/05/30 05:23:56;;;;;;;13.40;2.40;;;;;;;;;;7373141;19;20688;-73
2023/05/30 05:26:22;;;;;;;11.23;3.08;;;;;;;;;;7373830;19;20015;-74
2023/05/30 05:28:47;;;;;;;12.02;2.75;;;;;;;;;;7373802;19;20073;-74
2023/05/30 05:31:13;;;;;;;9.90;2.60;;;;;;;;;;7373214;19;20019;-74
2023/05/30 05:33:38;;;;;;;12.70;3.10;;;;;;;;;;7375633;19;20010;-75
2023/05/30 05:36:04;;;;;;;13.52;3.13;;;;;;;;;;7396050;19;20002;-74
2023/05/30 05:38:29;;;;;;;14.25;3.05;;;;;;;;;;7370519;19;20046;-74
2023/05/30 05:40:54;;;;;;;17.17;3.20;;;;;;;;;;7375095;19;20529;-74
2023/05/30 05:43:20;;;;;;;10.57;2.78;;;;;;;;;;7374726;19;20090;-75
2023/05/30 05:45:45;;;;;;;12.52;2.38;;;;;;;;;;7373391;19;19999;-74
2023/05/30 05:48:10;;;;;;;13.35;2.78;;;;;;;;;;7389381;19;20011;-74
2023/05/30 05:50:36;;;;;;;8.60;2.58;;;;;;;;;;7368029;19;20006;-74
2023/05/30 05:53:01;;;;;;;13.90;3.20;;;;;;;;;;7370787;19;20014;-74
2023/05/30 05:55:26;;;;;;;11.50;2.60;;;;;;;;;;7370713;19;20021;-74
2023/05/30 05:57:52;;;;;;;13.95;3.03;;;;;;;;;;7366997;19;20456;-74
2023/05/30 06:00:17;;;;;;;8.88;2.78;;;;;;;;;;7392573;19;20299;-74
2023/05/30 06:02:43;;;;;;;10.25;3.05;;;;;;;;;;7368222;19;20010;-74
2023/05/30 06:05:08;;;;;;;11.50;2.65;;;;;;;;;;7373979;19;20006;-74
2023/05/30 06:07:34;;;;;;;9.60;2.70;;;;;;;;;;7372759;19;20014;-74
2023/05/30 06:09:59;;;;;;;8.80;2.45;;;;;;;;;;7374223;19;20014;-75
2023/05/30 06:12:25;;;;;;;11.40;2.70;;;;;;;;;;7400311;19;19999;-75
2023/05/30 06:14:50;;;;;;;10.23;2.97;;;;;;;;;;7380082;19;20021;-74
2023/05/30 06:17:16;;;;;;;13.88;2.55;;;;;;;;;;7379152;19;20011;-75
2023/05/30 06:19:41;;;;;;;13.05;2.72;;;;;;;;;;7377394;19;20749;-74
2023/05/30 06:22:07;;;;;;;12.63;3.28;;;;;;;;;;7378831;19;20035;-74
2023/05/30 06:24:33;;;;;;;7.32;2.35;;;;;;;;;;7400711;19;20355;-73
2023/05/30 06:26:59;;;;;;;10.85;2.92;;;;;;;;;;7380162;19;20010;-74
2023/05/30 06:29:24;;;;;;;7.45;2.33;;;;;;;;;;7372922;19;20115;-74
2023/05/30 06:31:50;;;;;;;11.32;3.05;;;;;;;;;;7374655;19;20010;-75
2023/05/30 06:34:15;;;;;;;11.68;2.97;;;;;;;;;;7377084;19;20660;-74
2023/05/30 06:36:40;;;;;;;11.02;2.53;;;;;;;;;;7374564;19;20006;-75
2023/05/30 06:39:06;;;;;;;13.52;2.67;;;;;;;;;;7391892;19;20011;-73
2023/05/30 06:41:34;;;;;;;7.13;2.42;;;;;;;;;;7369493;19;20403;-74
2023/05/30 06:44:00;;;;;;;7.80;2.45;;;;;;;;;;7370357;19;20071;-74
2023/05/30 06:46:25;;;;;;;9.13;2.50;;;;;;;;;;7369669;19;20007;-74
2023/05/30 06:48:51;;;;;;;6.65;2.03;;;;;;;;;;7366822;19;19995;-74
2023/05/30 06:51:16;;;;;;;5.82;2.20;;;;;;;;;;7389894;19;19999;-74
2023/05/30 06:53:41;;;;;;;7.53;2.22;;;;;;;;;;7370646;19;20048;-74
2023/05/30 06:56:07;;;;;;;9.75;2.55;;;;;;;;;;7368056;19;20364;-74
2023/05/30 06:58:32;;;;;;;7.75;2.33;;;;;;;;;;7358738;19;20046;-74
2023/05/30 07:00:57;;;;;;;8.00;2.30;;;;;;;;;;7360758;19;20081;-75
2023/05/30 07:03:24;;;;;;;15.23;2.60;;;;;;;;;;7390943;19;20011;-75
2023/05/30 07:05:49;;;;;;;10.73;2.65;;;;;;;;;;7366105;19;20082;-75
2023/05/30 07:08:14;;;;;;;6.28;2.35;;;;;;;;;;7366517;19;20018;-75
2023/05/30 07:10:40;;;;;;;7.63;2.05;;;;;;;;;;7364609;19;20048;-75
2023/05/30 07:13:05;;;;;;;5.57;1.90;;;;;;;;;;7364963;19;20015;-75
2023/05/30 07:15:31;;;;;;;7.20;2.20;;;;;;;;;;7391693;19;20107;-74
2023/05/30 07:17:57;;;;;;;6.90;2.58;;;;;;;;;;7365516;19;20021;-74
2023/05/30 07:20:23;;;;;;;5.93;2.20;;;;;;;;;;7368403;19;20026;-74
2023/05/30 07:22:49;;;;;;;5.88;2.38;;;;;;;;;;7367095;19;20010;-73
2023/05/30 07:25:15;;;;;;;8.68;2.65;;;;;;;;;;7356248;19;20023;-74
2023/05/30 07:27:40;;;;;;;13.18;2.63;;;;;;;;;;7364464;19;20010;-74
2023/05/30 07:30:06;;;;;;;8.00;2.38;;;;;;;;;;7387486;19;20089;-74
2023/05/30 07:32:31;;;;;;;14.20;2.30;;;;;;;;;;7367421;19;20047;-74
2023/05/30 07:34:57;;;;;;;7.10;2.08;;;;;;;;;;7369579;19;20436;-74
2023/05/30 07:37:22;;;;;;;9.57;2.75;;;;;;;;;;7367754;19;20490;-73
2023/05/30 07:39:47;;;;;;;10.10;2.45;;;;;;;;;;7368653;19;20006;-74
2023/05/30 07:42:13;;;;;;;6.10;2.20;;;;;;;;;;7390714;19;20333;-74
2023/05/30 07:44:38;;;;;;;9.30;2.33;;;;;;;;;;7369164;19;20029;-74
2023/05/30 07:47:04;;;;;;;5.25;1.70;;;;;;;;;;7368319;19;20011;-75
2023/05/30 07:49:29;;;;;;;4.40;2.10;;;;;;;;;;7367100;19;20014;-74
2023/05/30 07:51:54;;;;;;;10.13;2.00;;;;;;;;;;7368377;19;20552;-75
2023/05/30 07:54:20;;;;;;;9.75;2.83;;;;;;;;;;7391406;19;20082;-75
2023/05/30 07:56:45;;;;;;;8.40;2.45;;;;;;;;;;7367808;19;20007;-73
2023/05/30 07:59:11;;;;;;;7.63;2.30;;;;;;;;;;7367148;19;20014;-73
2023/05/30 08:01:36;;;;;;;5.78;1.95;;;;;;;;;;7367774;19;20047;-73
2023/05/30 08:04:01;;;;;;;8.73;2.40;;;;;;;;;;7372253;19;20010;-72
2023/05/30 08:06:27;;;;;;;12.00;2.35;;;;;;;;;;7394336;19;20002;-72
2023/05/30 08:08:52;;;;;;;7.38;2.15;;;;;;;;;;7370427;19;20006;-73
2023/05/30 08:11:19;;;;;;;5.75;2.17;;;;;;;;;;7366172;19;20011;-73
2023/05/30 08:13:44;;;;;;;13.32;2.47;;;;;;;;;;7367630;19;20006;-72
2023/05/30 08:16:10;;;;;;;10.65;2.50;;;;;;;;;;7367544;19;20107;-72
2023/05/30 08:18:37;;;;;;;5.57;2.00;;;;;;;;;;7388941;19;20068;-72
2023/05/30 08:21:02;;;;;;;5.35;2.13;;;;;;;;;;7384562;19;19999;-73
2023/05/30 08:23:28;;;;;;;12.82;2.60;;;;;;;;;;7366895;19;20079;-72
2023/05/30 08:25:53;;;;;;;6.10;2.22;;;;;;;;;;7369957;19;20007;-73
2023/05/30 08:28:20;;;;;;;9.32;2.35;;;;;;;;;;7371605;19;20002;-72
2023/05/30 08:30:48;;;;;;;17.42;2.35;;;;;;;;;;7370370;19;20011;-72
2023/05/30 08:33:17;;;;;;;7.47;2.22;;;;;;;;;;7392021;19;20026;-73
2023/05/30 08:35:43;;;;;;;9.20;2.55;;;;;;;;;;7373989;19;20007;-73
2023/05/30 08:38:09;;;;;;;8.70;2.63;;;;;;;;;;7374099;19;20028;-83
2023/05/30 08:40:42;;;;;;;6.82;1.95;;;;;;;;;;7375135;19;19999;-81
2023/05/30 08:43:07;;;;;;;7.80;2.35;;;;;;;;;;7378785;19;20013;-78
2023/05/30 08:45:33;;;;;;;6.75;2.30;;;;;;;;;;7397326;19;19998;-75
2023/05/30 08:48:02;;;;;;;7.10;2.40;;;;;;;;;;7374626;19;20012;-77
2023/05/30 08:50:29;;;;;;;6.80;2.00;;;;;;;;;;7385179;19;20050;-77
2023/05/30 08:53:00;;;;;;;8.68;2.38;;;;;;;;;;7392111;19;20014;-73
2023/05/30 08:55:30;;;;;;;5.15;2.08;;;;;;;;;;7389351;19;20006;-74
2023/05/30 08:58:20;;;;;;;6.00;2.43;;;;;;;;;;7378714;19;20573;-73
2023/05/30 09:00:48;;;;;;;13.57;2.40;;;;;;;;;;7375500;19;20013;-73
2023/05/30 09:03:16;;;;;;;8.20;2.10;;;;;;;;;;7396329;19;20074;-73
2023/05/30 09:05:42;;;;;;;11.70;2.47;;;;;;;;;;7376498;19;20003;-80
2023/05/30 09:08:09;;;;;;;6.97;2.10;;;;;;;;;;7386251;19;20041;-80
2023/05/30 09:10:37;;;;;;;6.68;2.20;;;;;;;;;;7385587;19;20006;-78
2023/05/30 09:13:02;;;;;;;9.48;2.85;;;;;;;;;;7384169;19;20021;-80
2023/05/30 09:15:28;;;;;;;9.48;2.30;;;;;;;;;;7409358;19;20540;-78
2023/05/30 09:17:54;;;;;;;7.63;2.33;;;;;;;;;;7380030;19;20018;-78
2023/05/30 09:20:22;;;;;;;8.00;1.88;;;;;;;;;;7373065;19;20480;-72
2023/05/30 09:22:47;;;;;;;11.80;2.97;;;;;;;;;;7374333;19;20006;-74
2023/05/30 09:25:15;;;;;;;11.70;2.10;;;;;;;;;;7374563;19;20014;-74
2023/05/30 09:27:45;;;;;;;12.02;2.35;;;;;;;;;;7371306;19;20021;-75
2023/05/30 09:30:12;;;;;;;4.25;1.80;;;;;;;;;;7392449;19;20453;-74
2023/05/30 09:32:38;;;;;;;10.85;2.63;;;;;;;;;;7372856;19;20011;-73
2023/05/30 09:35:12;;;;;;;10.07;2.33;;;;;;;;;;7373074;19;20109;-71
2023/05/30 09:37:43;;;;;;;8.07;2.20;;;;;;;;;;7369831;19;20039;-73
2023/05/30 09:40:10;;;;;;;4.60;2.25;;;;;;;;;;7373148;19;20014;-72
2023/05/30 09:42:39;;;;;;;9.45;2.42;;;;;;;;;;7394589;19;20009;-73
2023/05/30 09:45:06;;;;;;;9.82;2.53;;;;;;;;;;7370838;19;20014;-72
2023/05/30 09:47:38;;;;;;;7.22;2.42;;;;;;;;;;7370085;19;20082;-73
2023/05/30 09:50:03;;;;;;;5.55;2.00;;;;;;;;;;7370922;19;19999;-72
2023/05/30 09:52:29;;;;;;;6.00;2.17;;;;;;;;;;7373731;19;20357;-72
2023/05/30 09:54:55;;;;;;;7.65;2.42;;;;;;;;;;7376118;19;20353;-72
2023/05/30 09:57:20;;;;;;;5.93;2.30;;;;;;;;;;7394571;19;20497;-72
2023/05/30 09:59:48;;;;;;;8.52;2.38;;;;;;;;;;7371061;19;20002;-72
2023/05/30 10:02:23;;;;;;;6.00;2.22;;;;;;;;;;7374709;19;20016;-72
2023/05/30 10:04:52;;;;;;;6.15;2.45;;;;;;;;;;7376219;19;20367;-72
2023/05/30 10:07:21;;;;;;;8.18;2.60;;;;;;;;;;7372975;19;20036;-72
2023/05/30 10:09:49;;;;;;;11.35;2.38;;;;;;;;;;7374481;19;19999;-72
2023/05/30 10:12:15;;;;;;;3.53;1.85;;;;;;;;;;7391198;19;20425;-72
2023/05/30 10:14:40;;;;;;;6.60;2.50;;;;;;;;;;7374790;19;20014;-72
2023/05/30 10:17:07;;;;;;;5.38;2.13;;;;;;;;;;7374501;19;20151;-72
2023/05/30 10:20:01;;;;;;;5.70;1.95;;;;;;;;;;7370621;19;20030;-73
2023/05/30 10:22:30;;;;;;;7.03;2.20;;;;;;;;;;7371864;19;20578;-72
2023/05/30 10:24:57;;;;;;;10.27;2.10;;;;;;;;;;7371521;19;20006;-72
2023/05/30 10:27:31;;;;;;;4.53;2.10;;;;;;;;;;7392093;19;20018;-72
2023/05/30 10:30:03;;;;;;;7.28;2.30;;;;;;;;;;7369006;19;20815;-72
2023/05/30 10:32:32;;;;;;;6.07;2.00;;;;;;;;;;7370899;19;20006;-72
2023/05/30 10:35:15;;;;;;;6.85;2.08;;;;;;;;;;7371030;19;20031;-72
2023/05/30 10:37:41;;;;;;;6.47;2.28;;;;;;;;;;7369437;19;20014;-71
2023/05/30 10:40:27;;;;;;;7.28;2.40;;;;;;;;;;7371480;19;20006;-72
2023/05/30 10:43:10;;;;;;;7.28;2.33;;;;;;;;;;7370600;19;20084;-71
2023/05/30 10:45:54;;;;;;;5.70;2.00;;;;;;;;;;7391894;19;20011;-72
2023/05/30 10:48:49;;;;;;;8.32;2.92;;;;;;;;;;7366167;19;20017;-72
2023/05/30 10:51:14;;;;;;;5.20;2.05;;;;;;;;;;7370647;19;20014;-72
2023/05/30 10:53:42;;;;;;;7.75;2.47;;;;;;;;;;7372487;19;20555;-72
2023/05/30 10:56:40;;;;;;;10.85;2.60;;;;;;;;;;7371190;19;20102;-71
2023/05/30 10:59:18;;;;;;;7.88;2.25;;;;;;;;;;7365162;19;20031;-72
2023/05/30 11:02:02;;;;;;;5.97;2.08;;;;;;;;;;7362887;19;20338;-73
2023/05/30 11:04:42;;;;;;;5.07;2.10;;;;;;;;;;7362619;19;20019;-72
2023/05/30 11:07:10;;;;;;;8.03;2.87;;;;;;;;;;7363397;19;20021;-71
2023/05/30 11:09:59;;;;;;;6.82;2.60;;;;;;;;;;7367309;19;20082;-71
2023/05/30 11:12:24;;;;;;;7.10;2.42;;;;;;;;;;7370361;19;20006;-71
2023/05/30 11:14:57;;;;;;;9.48;2.28;;;;;;;;;;7370530;19;20334;-71
2023/05/30 11:17:32;;;;;;;9.13;2.22;;;;;;;;;;7369354;19;20027;-72
2023/05/30 11:20:24;;;;;;;6.63;2.20;;;;;;;;;;7388715;19;20976;-72
2023/05/30 11:23:02;;;;;;;8.73;2.50;;;;;;;;;;7359214;19;20003;-72
2023/05/30 11:25:29;;;;;;;5.57;2.20;;;;;;;;;;7366933;19;20034;-71
2023/05/30 11:28:00;;;;;;;7.60;2.58;;;;;;;;;;7367892;19;20023;-72
2023/05/30 11:30:25;;;;;;;5.35;2.17;;;;;;;;;;7374100;19;20074;-72
2023/05/30 11:32:53;;;;;;;10.18;2.22;;;;;;;;;;7375593;19;19998;-72
2023/05/30 11:35:20;;;;;;;10.80;2.20;;;;;;;;;;7374728;19;20120;-72
2023/05/30 11:37:46;;;;;;;6.05;2.40;;;;;;;;;;7398739;19;20014;-72
2023/05/30 11:40:15;;;;;;;7.70;2.50;;;;;;;;;;7372282;19;20479;-72
2023/05/30 11:42:41;;;;;;;9.65;2.20;;;;;;;;;;7382765;19;20469;-72
2023/05/30 11:45:07;;;;;;;5.13;1.77;;;;;;;;;;7354542;19;20221;-71
2023/05/30 11:47:33;;;;;;;6.38;2.28;;;;;;;;;;7368790;19;20025;-71
2023/05/30 11:49:58;;;;;;;8.82;2.28;;;;;;;;;;7368575;19;20520;-72
2023/05/30 11:52:23;;;;;;;5.63;1.83;;;;;;;;;;7390766;19;20049;-71
2023/05/30 11:54:49;;;;;;;5.65;2.00;;;;;;;;;;7368107;19;20015;-72
2023/05/30 11:57:17;;;;;;;9.57;2.53;;;;;;;;;;7367222;19;20011;-72
2023/05/30 11:59:48;;;;;;;8.02;2.80;;;;;;;;;;7365800;19;20615;-72
2023/05/30 12:02:14;;;;;;;7.85;2.30;;;;;;;;;;7367088;19;20041;-72
2023/05/30 12:04:40;;;;;;;9.35;2.65;;;;;;;;;;7369863;19;20007;-72
2023/05/30 12:07:06;;;;;;;8.18;2.45;;;;;;;;;;7392025;19;20018;-72
2023/05/30 12:09:37;;;;;;;9.23;2.33;;;;;;;;;;7368161;19;20085;-71
2023/05/30 12:12:02;;;;;;;7.50;2.95;;;;;;;;;;7367209;19;20010;-71
2023/05/30 12:14:37;;;;;;;9.90;2.38;;;;;;;;;;7366181;19;20017;-72
2023/05/30 12:17:22;;;;;;;7.40;2.20;;;;;;;;;;7364786;19;20049;-71
2023/05/30 12:19:55;;;;;;;8.98;2.30;;;;;;;;;;7363424;19;20014;-72
2023/05/30 12:22:22;;;;;;;5.05;1.73;;;;;;;;;;7388587;19;20039;-71
2023/05/30 12:24:49;;;;;;;8.98;2.40;;;;;;;;;;7367482;19;20010;-71
2023/05/30 12:27:19;;;;;;;4.22;1.80;;;;;;;;;;7364102;19;20002;-72
2023/05/30 12:29:44;;;;;;;9.32;2.20;;;;;;;;;;7366674;19;20007;-72
2023/05/30 12:32:10;;;;;;;10.98;2.20;;;;;;;;;;7365620;19;20485;-72
2023/05/30 12:34:41;;;;;;;10.40;2.35;;;;;;;;;;7366736;19;20653;-73
2023/05/30 12:37:10;;;;;;;12.02;2.50;;;;;;;;;;7387903;19;20023;-71
2023/05/30 12:39:45;;;;;;;4.05;1.90;;;;;;;;;;7362858;19;20104;-71
2023/05/30 12:42:10;;;;;;;5.82;2.20;;;;;;;;;;7334372;19;20035;-68
2023/05/30 12:44:56;;;;;;;7.13;2.72;;;;;;;;;;7376979;19;22033;-66
2023/05/30 12:47:23;;;;;;;9.75;2.28;;;;;;;;;;7363815;19;20027;-69
2023/05/30 12:49:49;;;;;;;9.07;2.22;;;;;;;;;;7358739;19;20007;-68
2023/05/30 12:52:16;;;;;;;6.28;2.42;;;;;;;;;;7367182;19;20017;-70
2023/05/30 12:54:42;;;;;;;6.35;1.92;;;;;;;;;;7366324;19;20405;-70
2023/05/30 12:57:08;;;;;;;7.88;2.40;;;;;;;;;;7367275;19;20014;-69
2023/05/30 12:59:34;;;;;;;8.55;2.40;;;;;;;;;;7388991;19;20010;-69
2023/05/30 13:02:00;;;;;;;10.75;2.30;;;;;;;;;;7365444;19;20354;-67
2023/05/30 13:04:25;;;;;;;7.90;2.42;;;;;;;;;;7368228;19;20006;-68
2023/05/30 13:06:51;;;;;;;10.30;2.78;;;;;;;;;;7371173;19;20063;-64
2023/05/30 13:09:16;;;;;;;10.02;2.20;;;;;;;;;;7369969;19;20081;-63
2023/05/30 13:11:42;;;;;;;7.40;2.38;;;;;;;;;;7371088;19;20028;-66
2023/05/30 13:14:07;;;;;;;8.30;2.33;;;;;;;;;;7397149;19;20014;-65
2023/05/30 13:16:34;;;;;;;6.35;2.30;;;;;;;;;;7368168;19;20070;-65
2023/05/30 13:19:00;;;;;;;5.63;2.13;;;;;;;;;;7371471;19;20002;-61
2023/05/30 13:21:25;;;;;;;6.30;2.40;;;;;;;;;;7366579;19;20464;-65
2023/05/30 13:23:50;;;;;;;7.75;2.25;;;;;;;;;;7374508;19;20003;-63
2023/05/30 13:26:16;;;;;;;13.93;2.45;;;;;;;;;;7394248;19;20006;-66
2023/05/30 13:28:41;;;;;;;7.65;2.40;;;;;;;;;;7373491;19;20027;-68
2023/05/30 13:31:07;;;;;;;12.90;2.95;;;;;;;;;;7376533;19;20016;-63
2023/05/30 13:33:33;;;;;;;10.75;2.58;;;;;;;;;;7373906;19;20010;-65
2023/05/30 13:35:58;;;;;;;10.27;2.05;;;;;;;;;;7371994;19;19998;-64
2023/05/30 13:38:25;;;;;;;8.68;2.08;;;;;;;;;;7390367;19;20010;-68
2023/05/30 13:40:51;;;;;;;8.73;2.20;;;;;;;;;;7361314;19;20583;-65
2023/05/30 13:43:17;;;;;;;7.50;2.45;;;;;;;;;;7367266;19;20018;-66
2023/05/30 13:45:42;;;;;;;13.52;2.58;;;;;;;;;;7367498;19;20017;-67
2023/05/30 13:48:07;;;;;;;9.02;2.35;;;;;;;;;;7363802;19;20025;-67
2023/05/30 13:50:34;;;;;;;10.13;2.20;;;;;;;;;;7383693;19;20023;-67
2023/05/30 13:52:59;;;;;;;7.72;2.30;;;;;;;;;;7359377;19;20365;-67
2023/05/30 13:55:25;;;;;;;8.88;2.40;;;;;;;;;;7360007;19;20010;-66
2023/05/30 13:57:50;;;;;;;9.57;2.53;;;;;;;;;;7361508;19;20010;-67
2023/05/30 14:00:16;;;;;;;14.38;2.72;;;;;;;;;;7359609;19;20395;-67
2023/05/30 14:02:42;;;;;;;8.48;2.20;;;;;;;;;;7364464;19;20007;-68
2023/05/30 14:05:07;;;;;;;7.90;1.90;;;;;;;;;;7389737;19;20011;-66
2023/05/30 14:07:33;;;;;;;10.25;2.65;;;;;;;;;;7358735;19;20017;-66
2023/05/30 14:09:58;;;;;;;8.30;2.30;;;;;;;;;;7365331;19;20010;-67
2023/05/30 14:12:23;;;;;;;7.13;2.45;;;;;;;;;;7364663;19;20390;-66
2023/05/30 14:14:49;;;;;;;8.52;2.65;;;;;;;;;;7362482;19;20006;-67
2023/05/30 14:17:15;;;;;;;9.88;2.70;;;;;;;;;;7377683;19;20010;-68
2023/05/30 14:19:40;;;;;;;7.80;2.10;;;;;;;;;;7359696;19;20007;-67
2023/05/30 14:22:06;;;;;;;9.25;2.65;;;;;;;;;;7359363;19;20027;-67
2023/05/30 14:24:31;;;;;;;7.80;2.58;;;;;;;;;;7358391;19;20010;-67
2023/05/30 14:26:57;;;;;;;7.97;2.45;;;;;;;;;;7359869;19;20015;-66
2023/05/30 14:29:22;;;;;;;8.77;2.47;;;;;;;;;;7381617;19;20094;-66
2023/05/30 14:31:47;;;;;;;12.20;2.45;;;;;;;;;;7357579;19;20023;-67
2023/05/30 14:34:13;;;;;;;10.38;2.50;;;;;;;;;;7364049;19;20011;-66
2023/05/30 14:36:39;;;;;;;6.43;2.33;;;;;;;;;;7361329;19;20010;-67
2023/05/30 14:39:04;;;;;;;8.07;2.25;;;;;;;;;;7221996;19;2742340;-67